createdAt,value
2022-12-16T00:00:01.603Z,43.53
2022-12-16T00:02:31.760Z,44.30
2022-12-16T00:05:02.124Z,46.27
2022-12-16T00:07:34.929Z,45.57
2022-12-16T00:10:05.060Z,45.70
2022-12-16T00:12:35.052Z,47.17
2022-12-16T00:15:05.139Z,44.77
2022-12-16T00:17:36.254Z,51.70
2022-12-16T00:20:06.800Z,43.87
2022-12-16T00:22:39.372Z,52.20
2022-12-16T00:25:11.412Z,50.70
2022-12-16T00:27:41.427Z,48.60
2022-12-16T00:30:13.440Z,50.60
2022-12-16T00:32:43.473Z,48.63
2022-12-16T00:35:13.466Z,52.53
2022-12-16T00:37:46.065Z,43.80
2022-12-16T00:40:16.297Z,49.07
2022-12-16T00:42:46.385Z,51.23
2022-12-16T00:45:16.815Z,47.90
2022-12-16T00:47:46.868Z,50.80
2022-12-16T00:50:16.983Z,47.80
2022-12-16T00:52:50.060Z,47.23
2022-12-16T00:55:21.446Z,45.10
2022-12-16T00:57:51.745Z,49.03
2022-12-16T01:00:22.514Z,46.77
2022-12-16T01:02:54.813Z,50.03
2022-12-16T01:05:27.518Z,48.90
2022-12-16T01:08:00.422Z,49.07
2022-12-16T01:10:31.486Z,46.13
2022-12-16T01:13:01.471Z,49.00
2022-12-16T01:15:31.496Z,52.13
2022-12-16T01:18:01.579Z,42.27
2022-12-16T01:20:31.666Z,45.20
2022-12-16T01:23:04.264Z,47.30
2022-12-16T01:25:34.424Z,51.17
2022-12-16T01:28:04.559Z,51.20
2022-12-16T01:30:34.823Z,45.30
2022-12-16T01:33:04.973Z,47.50
2022-12-16T01:38:27.615Z,47.37
2022-12-16T01:40:57.811Z,46.80
2022-12-16T01:43:31.643Z,46.53
2022-12-16T01:46:07.905Z,42.90
2022-12-16T01:48:55.120Z,45.00
2022-12-16T01:51:31.295Z,52.40
2022-12-16T01:54:09.547Z,49.30
2022-12-16T01:56:47.408Z,50.53
2022-12-16T01:59:21.306Z,45.03
2022-12-16T02:01:51.490Z,48.20
2022-12-16T02:04:21.597Z,52.77
2022-12-16T02:06:52.062Z,47.03
2022-12-16T02:09:24.931Z,49.50
2022-12-16T02:12:20.475Z,55.67
2022-12-16T02:15:16.948Z,51.33
2022-12-16T02:18:02.594Z,47.47
2022-12-16T02:21:20.292Z,52.60
2022-12-16T02:24:52.988Z,53.83
2022-12-16T02:27:53.008Z,50.10
2022-12-16T02:30:55.257Z,50.80
2022-12-16T02:34:04.908Z,49.73
2022-12-16T02:36:57.336Z,47.87
2022-12-16T02:39:38.164Z,51.40
2022-12-16T02:42:17.643Z,48.40
2022-12-16T02:45:00.223Z,52.23
2022-12-16T02:47:34.186Z,50.87
2022-12-16T02:50:04.622Z,45.97
2022-12-16T02:52:37.861Z,47.60
2022-12-16T02:55:11.787Z,54.20
2022-12-16T02:58:06.059Z,47.90
2022-12-16T03:00:48.200Z,48.77
2022-12-16T03:03:30.977Z,47.90
2022-12-16T03:06:04.636Z,49.87
2022-12-16T03:08:42.369Z,51.53
2022-12-16T03:11:12.672Z,47.67
2022-12-16T03:13:49.294Z,49.43
2022-12-16T03:16:26.203Z,57.80
2022-12-16T03:19:05.544Z,54.17
2022-12-16T03:21:42.350Z,56.07
2022-12-16T03:24:14.618Z,50.37
2022-12-16T03:26:54.263Z,49.43
2022-12-16T03:29:33.467Z,50.57
2022-12-16T03:32:08.263Z,50.13
2022-12-16T03:34:47.695Z,51.00
2022-12-16T03:37:18.060Z,46.00
2022-12-16T03:39:53.449Z,45.67
2022-12-16T03:42:23.388Z,47.03
2022-12-16T03:44:53.885Z,49.70
2022-12-16T03:47:24.291Z,48.77
2022-12-16T03:49:56.966Z,48.70
2022-12-16T03:52:26.956Z,54.00
2022-12-16T03:54:58.088Z,49.70
2022-12-16T03:57:28.196Z,46.50
2022-12-16T03:59:58.176Z,46.23
2022-12-16T04:02:28.352Z,47.70
2022-12-16T04:05:01.033Z,51.10
2022-12-16T04:07:31.217Z,50.10
2022-12-16T04:10:01.170Z,49.47
2022-12-16T04:12:43.639Z,53.63
2022-12-16T04:15:27.143Z,48.93
2022-12-16T04:18:09.752Z,49.20
2022-12-16T04:21:00.856Z,51.27
2022-12-16T04:23:46.257Z,52.03
2022-12-16T04:26:16.510Z,47.93
2022-12-16T04:28:46.481Z,48.17
2022-12-16T04:31:16.703Z,48.70
2022-12-16T04:33:59.354Z,47.30
2022-12-16T04:36:44.199Z,49.70
2022-12-16T04:39:26.682Z,46.63
2022-12-16T04:42:09.695Z,46.07
2022-12-16T04:45:01.008Z,43.57
2022-12-16T04:47:43.535Z,44.07
2022-12-16T04:50:26.112Z,41.70
2022-12-16T04:53:11.525Z,44.00
2022-12-16T04:55:57.904Z,46.20
2022-12-16T04:58:43.143Z,47.77
2022-12-16T05:01:25.818Z,37.30
2022-12-16T05:04:08.431Z,43.20
2022-12-16T05:06:50.981Z,47.03
2022-12-16T05:09:36.050Z,42.27
2022-12-16T05:12:19.148Z,43.33
2022-12-16T05:15:01.611Z,41.93
2022-12-16T05:17:44.128Z,37.47
2022-12-16T05:20:27.067Z,36.50
2022-12-16T05:23:11.603Z,36.70
2022-12-16T05:25:56.714Z,36.57
2022-12-16T05:28:39.206Z,42.27
2022-12-16T05:31:21.791Z,38.00
2022-12-16T05:34:04.355Z,35.63
2022-12-16T05:36:46.880Z,36.90
2022-12-16T05:39:29.429Z,41.57
2022-12-16T05:42:14.559Z,37.87
2022-12-16T05:44:57.085Z,40.13
2022-12-16T05:47:40.153Z,37.40
2022-12-16T05:50:23.741Z,35.47
2022-12-16T05:53:06.670Z,34.57
2022-12-16T05:55:49.287Z,40.47
2022-12-16T05:58:34.504Z,34.63
2022-12-16T06:01:16.992Z,36.77
2022-12-16T06:03:59.532Z,31.60
2022-12-16T06:06:42.183Z,35.43
2022-12-16T06:09:24.874Z,36.10
2022-12-16T06:12:07.427Z,37.73
2022-12-16T06:14:52.548Z,36.17
2022-12-16T06:17:36.457Z,38.90
2022-12-16T06:20:32.507Z,37.83
2022-12-16T06:23:15.024Z,36.80
2022-12-16T06:25:57.898Z,34.20
2022-12-16T06:28:45.655Z,35.67
2022-12-16T06:31:31.230Z,38.40
2022-12-16T06:34:13.875Z,39.50
2022-12-16T06:36:56.619Z,37.77
2022-12-16T06:39:39.236Z,37.47
2022-12-16T06:42:21.791Z,37.17
2022-12-16T06:45:04.352Z,33.17
2022-12-16T06:47:49.621Z,32.67
2022-12-16T06:50:44.775Z,29.97
2022-12-16T06:53:27.635Z,31.70
2022-12-16T06:56:10.164Z,31.10
2022-12-16T06:58:52.665Z,29.43
2022-12-16T07:01:35.335Z,29.40
2022-12-16T07:04:20.870Z,24.57
2022-12-16T07:07:03.402Z,29.47
2022-12-16T07:09:51.505Z,26.33
2022-12-16T07:12:34.360Z,29.47
2022-12-16T07:15:16.970Z,25.20
2022-12-16T07:18:01.371Z,24.43
2022-12-16T07:20:46.631Z,24.90
2022-12-16T07:23:29.150Z,26.10
2022-12-16T07:26:11.654Z,24.00
2022-12-16T07:28:54.200Z,22.43
2022-12-16T07:31:37.119Z,27.47
2022-12-16T07:34:19.670Z,24.60
2022-12-16T07:37:04.803Z,22.20
2022-12-16T07:39:54.299Z,24.00
2022-12-16T07:42:37.723Z,23.20
2022-12-16T07:45:21.727Z,19.67
2022-12-16T07:48:04.994Z,21.40
2022-12-16T07:50:47.554Z,20.20
2022-12-16T07:53:32.935Z,21.80
2022-12-16T07:56:15.771Z,23.40
2022-12-16T07:58:58.272Z,20.20
2022-12-16T08:01:40.965Z,20.60
2022-12-16T08:04:23.621Z,21.67
2022-12-16T08:07:06.147Z,22.27
2022-12-16T08:09:51.243Z,20.20
2022-12-16T08:12:33.754Z,18.93
2022-12-16T08:15:16.310Z,19.37
2022-12-16T08:18:04.417Z,21.70
2022-12-16T08:20:46.967Z,21.20
2022-12-16T08:23:29.612Z,20.43
2022-12-16T08:26:14.768Z,21.43
2022-12-16T08:29:05.527Z,21.60
2022-12-16T08:31:59.820Z,19.57
2022-12-16T08:34:42.364Z,22.00
2022-12-16T08:37:25.108Z,21.27
2022-12-16T08:43:14.229Z,20.90
2022-12-16T08:45:56.924Z,21.80
2022-12-16T08:48:39.428Z,24.23
2022-12-16T08:51:22.549Z,25.00
2022-12-16T08:54:05.136Z,22.23
2022-12-16T08:56:48.138Z,17.50
2022-12-16T08:59:33.304Z,18.73
2022-12-16T09:02:16.660Z,18.37
2022-12-16T09:04:59.544Z,16.70
2022-12-16T09:07:42.048Z,15.57
2022-12-16T09:10:24.611Z,17.80
2022-12-16T09:13:07.330Z,16.67
2022-12-16T09:15:53.731Z,19.03
2022-12-16T09:18:36.245Z,14.67
2022-12-16T09:21:21.588Z,14.50
2022-12-16T09:24:04.075Z,17.23
2022-12-16T09:26:46.691Z,14.97
2022-12-16T09:29:29.226Z,15.13
2022-12-16T09:32:14.443Z,14.43
2022-12-16T09:34:56.920Z,16.90
2022-12-16T09:37:39.408Z,16.83
2022-12-16T09:40:27.117Z,14.30
2022-12-16T09:43:23.850Z,12.80
2022-12-16T09:46:25.374Z,13.10
2022-12-16T09:49:35.697Z,14.37
2022-12-16T09:52:24.482Z,15.47
2022-12-16T09:55:07.303Z,12.83
2022-12-16T09:57:52.348Z,12.67
2022-12-16T10:00:38.917Z,12.03
2022-12-16T10:03:34.828Z,11.23
2022-12-16T10:06:37.195Z,11.70
2022-12-16T10:09:31.659Z,12.47
2022-12-16T10:12:26.524Z,13.03
2022-12-16T10:15:24.669Z,11.20
2022-12-16T10:18:07.339Z,11.50
2022-12-16T10:21:00.220Z,12.40
2022-12-16T10:23:58.988Z,11.37
2022-12-16T10:27:04.953Z,11.13
2022-12-16T10:29:55.632Z,13.03
2022-12-16T10:32:47.630Z,12.00
2022-12-16T10:35:38.733Z,10.60
2022-12-16T10:38:33.755Z,10.40
2022-12-16T10:41:21.667Z,10.90
2022-12-16T10:44:05.563Z,11.33
2022-12-16T10:46:50.803Z,12.23
2022-12-16T10:49:34.893Z,11.23
2022-12-16T10:52:17.876Z,11.00
2022-12-16T10:55:11.411Z,9.83
2022-12-16T10:58:11.565Z,12.33
2022-12-16T11:00:59.058Z,12.17
2022-12-16T11:03:45.216Z,11.37
2022-12-16T11:06:33.030Z,11.80
2022-12-16T11:09:36.307Z,13.00
2022-12-16T11:12:38.965Z,10.73
2022-12-16T11:15:42.534Z,9.23
2022-12-16T11:18:28.732Z,10.80
2022-12-16T11:21:28.645Z,10.87
2022-12-16T11:24:31.367Z,10.40
2022-12-16T11:27:16.907Z,10.93
2022-12-16T11:30:11.465Z,10.67
2022-12-16T11:33:02.450Z,11.83
2022-12-16T11:35:52.573Z,11.10
2022-12-16T11:38:42.679Z,10.40
2022-12-16T11:41:38.008Z,10.73
2022-12-16T11:44:29.009Z,9.20
2022-12-16T11:47:11.480Z,10.23
2022-12-16T11:49:56.559Z,11.77
2022-12-16T11:52:39.402Z,9.23
2022-12-16T11:56:03.393Z,9.57
2022-12-16T11:58:44.719Z,10.27
2022-12-16T12:01:35.366Z,10.53
2022-12-16T12:04:20.905Z,11.07
2022-12-16T12:07:29.061Z,11.03
2022-12-16T12:10:29.040Z,10.43
2022-12-16T12:13:20.870Z,10.07
2022-12-16T12:16:19.860Z,10.17
2022-12-16T12:19:19.324Z,9.60
2022-12-16T12:22:14.493Z,11.43
2022-12-16T12:25:08.461Z,10.20
2022-12-16T12:28:01.448Z,10.23
2022-12-16T12:30:54.648Z,11.03
2022-12-16T12:33:53.495Z,9.77
2022-12-16T12:36:49.589Z,11.00
2022-12-16T12:39:43.057Z,11.17
2022-12-16T12:42:49.597Z,10.13
2022-12-16T12:46:10.191Z,9.90
2022-12-16T12:49:05.890Z,10.43
2022-12-16T12:52:06.011Z,12.53
2022-12-16T12:55:00.465Z,10.37
2022-12-16T12:57:45.803Z,9.90
2022-12-16T13:00:35.232Z,7.83
2022-12-16T13:03:29.370Z,8.90
2022-12-16T13:06:25.257Z,9.30
2022-12-16T13:09:13.443Z,10.17
2022-12-16T13:12:44.291Z,12.13
2022-12-16T13:15:35.514Z,10.50
2022-12-16T13:18:44.509Z,9.53
2022-12-16T13:22:03.346Z,10.60
2022-12-16T13:25:02.214Z,11.17
2022-12-16T13:28:08.020Z,9.30
2022-12-16T13:30:51.115Z,10.10
2022-12-16T13:33:41.722Z,9.27
2022-12-16T13:36:27.658Z,10.03
2022-12-16T13:39:14.931Z,9.27
2022-12-16T13:42:15.299Z,8.90
2022-12-16T13:45:14.844Z,9.63
2022-12-16T13:48:20.739Z,8.67
2022-12-16T13:51:06.411Z,8.23
2022-12-16T13:53:56.714Z,8.10
2022-12-16T13:56:48.593Z,8.77
2022-12-16T13:59:36.556Z,9.60
2022-12-16T14:02:46.331Z,9.40
2022-12-16T14:05:42.595Z,9.77
2022-12-16T14:08:33.005Z,9.77
2022-12-16T14:11:21.036Z,8.13
2022-12-16T14:14:16.394Z,8.97
2022-12-16T14:17:08.200Z,10.77
2022-12-16T14:20:11.350Z,9.83
2022-12-16T14:23:32.387Z,10.60
2022-12-16T14:26:15.948Z,10.20
2022-12-16T14:29:01.775Z,10.23
2022-12-16T14:31:53.246Z,11.87
2022-12-16T14:34:39.056Z,11.73
2022-12-16T14:37:29.176Z,9.63
2022-12-16T14:40:11.736Z,11.87
2022-12-16T14:42:56.745Z,12.20
2022-12-16T14:45:45.961Z,10.57
2022-12-16T14:48:47.473Z,11.33
2022-12-16T14:51:40.200Z,9.90
2022-12-16T14:54:57.936Z,11.63
2022-12-16T14:57:42.652Z,10.43
2022-12-16T15:00:33.032Z,9.57
2022-12-16T15:03:42.261Z,11.60
2022-12-16T15:06:33.457Z,9.10
2022-12-16T15:09:20.882Z,9.50
2022-12-16T15:12:09.779Z,9.00
2022-12-16T15:14:56.257Z,9.90
2022-12-16T15:17:43.691Z,9.43
2022-12-16T15:20:35.616Z,9.63
2022-12-16T15:23:18.262Z,8.93
2022-12-16T15:26:09.413Z,9.03
2022-12-16T15:28:59.878Z,9.40
2022-12-16T15:31:51.472Z,9.93
2022-12-16T15:34:45.323Z,9.30
2022-12-16T15:37:35.124Z,11.90
2022-12-16T15:40:18.041Z,10.70
2022-12-16T15:43:06.494Z,10.17
2022-12-16T15:45:52.510Z,10.57
2022-12-16T15:48:40.107Z,12.03
2022-12-16T15:51:38.351Z,9.33
2022-12-16T15:54:21.243Z,9.80
2022-12-16T15:57:13.301Z,9.13
2022-12-16T16:00:12.810Z,10.00
2022-12-16T16:03:03.593Z,11.17
2022-12-16T16:05:47.609Z,10.40
2022-12-16T16:08:30.121Z,9.93
2022-12-16T16:11:13.144Z,10.43
2022-12-16T16:13:59.353Z,10.23
2022-12-16T16:16:47.021Z,9.30
2022-12-16T16:19:39.099Z,11.27
2022-12-16T16:22:26.753Z,10.17
2022-12-16T16:25:09.265Z,11.63
2022-12-16T16:27:51.980Z,11.33
2022-12-16T16:30:34.804Z,10.40
2022-12-16T16:33:25.840Z,11.40
2022-12-16T16:36:11.294Z,9.83
2022-12-16T16:38:53.924Z,10.10
2022-12-16T16:41:38.940Z,10.93
2022-12-16T16:44:30.387Z,11.37
2022-12-16T16:47:14.021Z,9.77
2022-12-16T16:50:00.806Z,11.33
2022-12-16T16:52:47.096Z,11.93
2022-12-16T16:55:32.889Z,11.00
2022-12-16T16:58:15.682Z,11.97
2022-12-16T17:00:58.296Z,10.60
2022-12-16T17:03:41.661Z,11.33
2022-12-16T17:06:24.730Z,10.30
2022-12-16T17:09:09.849Z,9.93
2022-12-16T17:11:54.247Z,10.30
2022-12-16T17:14:37.236Z,11.53
2022-12-16T17:17:21.133Z,11.57
2022-12-16T17:20:03.742Z,9.90
2022-12-16T17:22:46.585Z,13.37
2022-12-16T17:25:32.531Z,11.83
2022-12-16T17:28:15.899Z,12.47
2022-12-16T17:30:58.502Z,12.30
2022-12-16T17:33:43.847Z,12.37
2022-12-16T17:36:31.867Z,12.30
2022-12-16T17:39:15.339Z,13.57
2022-12-16T17:42:00.970Z,10.80
2022-12-16T17:44:43.574Z,11.33
2022-12-16T17:47:26.147Z,12.43
2022-12-16T17:50:08.727Z,12.73
2022-12-16T17:52:51.435Z,12.10
2022-12-16T17:55:34.235Z,14.00
2022-12-16T17:58:19.340Z,12.30
2022-12-16T18:01:01.969Z,10.93
2022-12-16T18:03:44.715Z,12.10
2022-12-16T18:06:27.419Z,13.27
2022-12-16T18:09:09.729Z,13.00
2022-12-16T18:11:52.346Z,13.97
2022-12-16T18:14:38.006Z,13.60
2022-12-16T18:17:20.805Z,13.47
2022-12-16T18:20:03.363Z,12.53
2022-12-16T18:22:45.858Z,13.60
2022-12-16T18:25:28.664Z,13.47
2022-12-16T18:28:11.200Z,12.77
2022-12-16T18:30:56.293Z,12.13
2022-12-16T18:33:38.888Z,13.87
2022-12-16T18:36:22.354Z,13.77
2022-12-16T18:39:04.914Z,12.87
2022-12-16T18:41:47.426Z,13.37
2022-12-16T18:44:30.362Z,12.50
2022-12-16T18:47:15.815Z,13.27
2022-12-16T18:49:58.608Z,13.97
2022-12-16T18:52:41.250Z,13.80
2022-12-16T18:55:24.203Z,14.93
2022-12-16T18:58:20.974Z,15.30
2022-12-16T19:01:17.877Z,16.30
2022-12-16T19:04:03.200Z,12.37
2022-12-16T19:06:45.728Z,15.13
2022-12-16T19:09:28.254Z,13.33
2022-12-16T19:12:10.787Z,14.90
2022-12-16T19:14:53.301Z,14.03
2022-12-16T19:17:50.786Z,14.93
2022-12-16T19:20:36.785Z,13.03
2022-12-16T19:23:19.567Z,15.87
2022-12-16T19:26:02.087Z,16.60
2022-12-16T19:28:44.847Z,16.00
2022-12-16T19:31:32.535Z,15.00
2022-12-16T19:34:29.995Z,14.97
2022-12-16T19:37:15.108Z,16.67
2022-12-16T19:39:57.939Z,18.70
2022-12-16T19:42:40.695Z,17.23
2022-12-16T19:45:24.767Z,15.60
2022-12-16T19:48:07.647Z,16.27
2022-12-16T19:50:50.333Z,18.13
2022-12-16T19:53:35.592Z,18.40
2022-12-16T19:56:18.173Z,17.40
2022-12-16T19:59:01.281Z,17.37
2022-12-16T20:01:44.574Z,16.70
2022-12-16T20:04:27.535Z,14.93
2022-12-16T20:07:10.078Z,14.87
2022-12-16T20:09:56.113Z,17.70
2022-12-16T20:12:38.754Z,15.77
2022-12-16T20:15:23.007Z,16.73
2022-12-16T20:18:05.475Z,17.57
2022-12-16T20:20:48.128Z,19.37
2022-12-16T20:23:30.764Z,19.13
2022-12-16T20:26:17.533Z,17.00
2022-12-16T20:29:00.881Z,16.97
2022-12-16T20:31:43.599Z,14.70
2022-12-16T20:34:26.589Z,18.30
2022-12-16T20:37:09.116Z,15.83
2022-12-16T20:39:56.449Z,15.20
2022-12-16T20:42:43.610Z,15.80
2022-12-16T20:45:31.312Z,16.40
2022-12-16T20:48:13.836Z,14.70
2022-12-16T20:50:56.605Z,15.23
2022-12-16T20:53:39.678Z,16.60
2022-12-16T20:56:22.649Z,16.23
2022-12-16T20:59:07.830Z,14.97
2022-12-16T21:04:54.137Z,17.07
2022-12-16T21:07:37.510Z,17.20
2022-12-16T21:10:21.393Z,15.60
2022-12-16T21:13:06.993Z,18.10
2022-12-16T21:15:53.453Z,16.40
2022-12-16T21:18:40.005Z,15.53
2022-12-16T21:21:37.520Z,15.13
2022-12-16T21:24:20.715Z,14.93
2022-12-16T21:27:03.277Z,15.00
2022-12-16T21:29:45.819Z,15.20
2022-12-16T21:32:30.933Z,17.37
2022-12-16T21:35:13.428Z,17.77
2022-12-16T21:37:55.908Z,16.50
2022-12-16T21:40:39.083Z,15.90
2022-12-16T21:43:21.642Z,19.70
2022-12-16T21:46:07.940Z,18.23
2022-12-16T21:48:53.095Z,15.20
2022-12-16T21:51:38.947Z,17.00
2022-12-16T21:54:21.583Z,17.27
2022-12-16T21:57:04.296Z,17.00
2022-12-16T21:59:46.850Z,15.97
2022-12-16T22:02:29.763Z,16.30
2022-12-16T22:05:15.067Z,17.57
2022-12-16T22:07:57.891Z,16.90
2022-12-16T22:10:40.538Z,20.20
2022-12-16T22:13:23.059Z,19.73
2022-12-16T22:16:11.231Z,18.77
2022-12-16T22:18:53.775Z,19.10
2022-12-16T22:21:41.471Z,19.20
2022-12-16T22:24:24.267Z,17.73
2022-12-16T22:27:06.804Z,17.10
2022-12-16T22:29:49.332Z,18.60
2022-12-16T22:32:31.844Z,17.00
2022-12-16T22:35:14.370Z,16.13
2022-12-16T22:37:59.565Z,17.63
2022-12-16T22:40:42.096Z,16.23
2022-12-16T22:43:24.699Z,17.03
2022-12-16T22:46:14.823Z,22.47
2022-12-16T22:48:57.360Z,18.07
2022-12-16T22:51:39.898Z,18.53
2022-12-16T22:54:24.973Z,16.93
2022-12-16T22:57:07.534Z,17.63
2022-12-16T22:59:50.219Z,17.20
2022-12-16T23:02:32.733Z,18.70
2022-12-16T23:05:15.359Z,17.43
2022-12-16T23:07:58.011Z,16.10
2022-12-16T23:10:43.318Z,15.03
2022-12-16T23:13:27.809Z,16.47
2022-12-16T23:16:10.448Z,14.90
2022-12-16T23:18:56.459Z,16.30
2022-12-16T23:21:54.052Z,17.07
2022-12-16T23:24:36.584Z,24.00
2022-12-16T23:27:21.822Z,16.53
2022-12-16T23:30:04.361Z,15.27
2022-12-16T23:32:46.906Z,18.60
2022-12-16T23:35:29.646Z,16.63
2022-12-16T23:38:16.706Z,14.67
2022-12-16T23:40:59.421Z,16.63
2022-12-16T23:43:44.707Z,18.60
2022-12-16T23:46:27.352Z,17.60
2022-12-16T23:49:09.966Z,16.97
2022-12-16T23:51:52.475Z,17.80
2022-12-16T23:54:34.992Z,14.67
2022-12-16T23:57:17.524Z,16.13
